Terminal Aerodrome Forecast
Issued by NWS

Home | Current Version | Previous Version | Graphics & Text | Print | Product List | Glossary On
Versions: 1 2 3 4 5 6 7 8 9 10 11 12 13 14 15 16 17 18 19 20 21 22
000
FTUS43 KABR 161101 AAB
TAFATY
TAF AMD
KATY 161101Z 1611/1706 12006KT 2SM BR OVC002
     FM161500 14012KT P6SM BKN250
     FM161700 15018G26KT P6SM BKN250=

USA.gov is the U.S. government's official web portal to all federal, state and local government web resources and services.